Time;durP1;ratioP1;P1;durP2;ratioP2;P2;SDS_P1;SDS_P2;PMS_P1;PMS_P2;Temp;Humidity;BMP_temperature;BMP_pressure;BME280_temperature;BME280_humidity;BME280_pressure;Samples;Min_cycle;Max_cycle;Signal;HPM_P1;HPM_P2
2022/08/05 00:02:28;;;;;;;0.20;0.20;;;24.50;51.40;;;;;;6316102;27;20107;-43
2022/08/05 00:05:30;;;;;;;0.30;0.20;;;24.50;51.40;;;;;;6336367;27;20055;-41
2022/08/05 00:08:55;;;;;;;0.43;0.20;;;24.40;51.30;;;;;;6297278;27;20042;-42
2022/08/05 00:11:59;;;;;;;0.22;0.15;;;24.40;51.30;;;;;;6326792;27;20227;-42
2022/08/05 00:15:01;;;;;;;0.30;0.13;;;24.50;51.40;;;;;;6326359;27;20101;-45
2022/08/05 00:18:26;;;;;;;0.30;0.20;;;24.50;51.40;;;;;;6309241;27;20055;-43
2022/08/05 00:21:29;;;;;;;0.90;0.25;;;24.50;51.40;;;;;;6307306;27;20104;-43
2022/08/05 00:24:31;;;;;;;0.38;0.20;;;24.50;51.40;;;;;;6324233;27;20050;-41
2022/08/05 00:27:34;;;;;;;0.15;0.10;;;24.40;51.40;;;;;;6327494;27;20107;-42
2022/08/05 00:30:37;;;;;;;0.45;0.20;;;24.40;51.30;;;;;;6332047;27;20049;-42
2022/08/05 00:33:42;;;;;;;0.30;0.22;;;24.40;51.30;;;;;;6331404;27;20038;-42
2022/08/05 00:37:07;;;;;;;0.60;0.20;;;24.50;52.00;;;;;;6303721;27;20037;-43
2022/08/05 00:40:15;;;;;;;0.20;0.10;;;24.50;51.40;;;;;;6316709;27;20619;-43
2022/08/05 00:43:30;;;;;;;0.30;0.20;;;24.40;51.30;;;;;;6320393;27;20169;-41
2022/08/05 00:46:51;;;;;;;0.22;0.17;;;24.40;51.30;;;;;;6317234;27;20038;-47
2022/08/05 00:50:03;;;;;;;0.30;0.20;;;24.50;51.40;;;;;;6320255;27;20035;-42
2022/08/05 00:53:06;;;;;;;0.55;0.30;;;24.20;51.30;;;;;;6320825;27;20047;-42
2022/08/05 00:56:28;;;;;;;0.77;0.20;;;24.40;51.40;;;;;;6316059;27;20042;-43
2022/08/05 00:59:31;;;;;;;0.45;0.20;;;24.40;51.40;;;;;;6331742;27;20042;-43
2022/08/05 01:02:45;;;;;;;0.32;0.20;;;24.30;51.40;;;;;;6333376;27;20150;-41
2022/08/05 01:05:47;;;;;;;0.20;0.20;;;24.40;51.50;;;;;;6338042;27;20042;-42
2022/08/05 01:08:52;;;;;;;0.40;0.17;;;24.50;51.60;;;;;;6334121;27;20960;-42
2022/08/05 01:11:58;;;;;;;0.88;0.30;;;24.40;51.60;;;;;;6328388;27;20085;-42
2022/08/05 01:15:11;;;;;;;1.02;0.20;;;24.40;51.60;;;;;;6323224;27;20146;-41
2022/08/05 01:18:37;;;;;;;0.77;0.35;;;24.30;51.60;;;;;;6311121;27;20727;-40
2022/08/05 01:22:06;;;;;;;0.32;0.17;;;24.30;51.60;;;;;;6323282;27;20373;-43
2022/08/05 01:25:32;;;;;;;0.20;0.20;;;24.30;51.60;;;;;;6324425;27;20046;-40
2022/08/05 01:28:46;;;;;;;1.08;0.20;;;24.40;51.70;;;;;;6323354;27;20365;-42
2022/08/05 01:31:51;;;;;;;0.35;0.30;;;24.30;51.60;;;;;;6291159;27;20853;-40
2022/08/05 01:34:57;;;;;;;0.15;0.15;;;24.50;51.70;;;;;;6322097;27;20397;-43
2022/08/05 01:38:01;;;;;;;0.20;0.20;;;24.40;51.70;;;;;;6318608;27;21254;-45
2022/08/05 01:41:06;;;;;;;0.47;0.10;;;24.30;51.60;;;;;;6323047;27;20039;-43
2022/08/05 01:44:14;;;;;;;0.98;0.20;;;24.40;51.70;;;;;;6306784;27;20051;-42
2022/08/05 01:47:18;;;;;;;0.77;0.30;;;24.40;51.70;;;;;;6322666;27;20505;-41
2022/08/05 01:50:24;;;;;;;0.20;0.20;;;24.40;51.60;;;;;;6323037;27;20046;-41
2022/08/05 01:53:34;;;;;;;0.30;0.20;;;24.30;51.60;;;;;;6318000;27;20055;-43
2022/08/05 01:56:57;;;;;;;0.40;0.30;;;24.30;51.60;;;;;;6297356;27;20027;-40
2022/08/05 02:00:20;;;;;;;0.65;0.20;;;24.30;51.60;;;;;;6298177;27;20046;-43
2022/08/05 02:03:35;;;;;;;0.57;0.20;;;24.30;51.60;;;;;;6315710;27;20047;-41
2022/08/05 02:06:38;;;;;;;1.40;0.30;;;24.30;51.60;;;;;;6315141;27;20124;-40
2022/08/05 02:09:40;;;;;;;0.30;0.20;;;24.30;51.60;;;;;;6313821;27;21457;-43
2022/08/05 02:12:47;;;;;;;0.20;0.10;;;24.30;51.60;;;;;;6316890;27;20044;-42
2022/08/05 02:16:00;;;;;;;0.22;0.20;;;24.40;51.60;;;;;;6315172;27;20209;-44
2022/08/05 02:19:08;;;;;;;0.25;0.25;;;24.30;51.60;;;;;;6307708;27;20242;-40
2022/08/05 02:22:16;;;;;;;0.50;0.10;;;24.30;51.50;;;;;;6307323;27;20240;-42
2022/08/05 02:25:30;;;;;;;0.68;0.10;;;24.50;51.60;;;;;;6313108;27;20158;-41
2022/08/05 02:28:40;;;;;;;1.33;0.30;;;24.30;51.50;;;;;;6307653;27;20363;-41
2022/08/05 02:31:49;;;;;;;0.65;0.28;;;24.20;51.40;;;;;;6288041;27;20043;-40
2022/08/05 02:34:52;;;;;;;0.65;0.13;;;24.20;51.50;;;;;;6279022;27;20307;-40
2022/08/05 02:37:58;;;;;;;0.40;0.20;;;24.30;51.50;;;;;;6322232;27;20138;-40
2022/08/05 02:41:04;;;;;;;0.43;0.28;;;24.30;51.50;;;;;;6312537;27;20066;-42
2022/08/05 02:44:20;;;;;;;0.63;0.10;;;24.40;51.50;;;;;;6319147;27;20286;-41
2022/08/05 02:47:23;;;;;;;0.85;0.10;;;24.20;51.40;;;;;;6293206;27;20064;-40
2022/08/05 02:50:49;;;;;;;0.50;0.20;;;24.30;51.40;;;;;;6295588;27;20786;-40
2022/08/05 02:53:51;;;;;;;0.75;0.20;;;24.10;51.30;;;;;;6313909;27;20260;-42
2022/08/05 02:56:59;;;;;;;0.47;0.30;;;24.20;51.40;;;;;;6316909;27;20169;-40
2022/08/05 03:00:01;;;;;;;0.30;0.10;;;24.20;51.40;;;;;;6314834;27;20300;-41
2022/08/05 03:03:04;;;;;;;0.30;0.10;;;24.20;51.40;;;;;;6317017;27;20137;-40
2022/08/05 03:06:12;;;;;;;0.38;0.10;;;24.20;51.40;;;;;;6322141;27;20053;-44
2022/08/05 03:09:35;;;;;;;0.40;0.17;;;24.10;51.30;;;;;;6293786;27;20830;-41
2022/08/05 03:12:40;;;;;;;0.15;0.10;;;24.30;51.40;;;;;;6324192;27;20100;-42
2022/08/05 03:15:47;;;;;;;0.10;0.10;;;24.20;51.30;;;;;;6322227;27;20153;-42
2022/08/05 03:18:52;;;;;;;0.70;0.28;;;24.10;51.30;;;;;;6307199;27;20154;-39
2022/08/05 03:21:53;;;;;;;0.80;0.30;;;24.20;51.30;;;;;;6320358;27;20046;-38
2022/08/05 03:24:56;;;;;;;0.30;0.20;;;24.30;51.40;;;;;;6326475;27;20142;-40
2022/08/05 03:28:13;;;;;;;1.27;0.22;;;24.10;51.40;;;;;;6330798;27;20159;-42
2022/08/05 03:31:15;;;;;;;1.50;0.20;;;24.10;51.40;;;;;;6308497;27;20715;-42
2022/08/05 03:34:38;;;;;;;1.20;0.20;;;24.20;51.50;;;;;;6311663;27;20042;-41
2022/08/05 03:37:41;;;;;;;0.63;0.20;;;24.20;51.50;;;;;;6328249;27;20028;-40
2022/08/05 03:40:47;;;;;;;1.70;0.28;;;24.10;51.40;;;;;;6325606;27;20865;-41
2022/08/05 03:43:50;;;;;;;0.45;0.20;;;24.20;51.40;;;;;;6307629;27;20058;-41
2022/08/05 03:47:11;;;;;;;;;;;24.10;51.40;;;;;;6323260;27;20038;-41
2022/08/05 03:50:19;;;;;;;0.20;0.20;;;24.20;51.40;;;;;;6335475;27;21932;-40
2022/08/05 03:53:29;;;;;;;0.75;0.32;;;24.20;51.40;;;;;;6334718;27;20123;-40
2022/08/05 03:56:52;;;;;;;0.30;0.15;;;24.20;51.30;;;;;;6319643;27;20039;-42
2022/08/05 03:59:57;;;;;;;0.17;0.10;;;24.20;51.30;;;;;;6333114;27;20165;-41
2022/08/05 04:03:01;;;;;;;0.40;0.10;;;24.10;51.20;;;;;;6328523;27;20057;-43
2022/08/05 04:06:05;;;;;;;0.90;0.40;;;24.20;51.30;;;;;;6332538;27;20034;-43
2022/08/05 04:09:10;;;;;;;0.30;0.10;;;24.00;51.20;;;;;;6317998;27;20074;-42
2022/08/05 04:12:12;;;;;;;0.40;0.20;;;24.10;51.20;;;;;;6333576;27;20150;-41
2022/08/05 04:15:26;;;;;;;0.88;0.10;;;24.20;51.20;;;;;;6331577;27;20043;-40
2022/08/05 04:18:34;;;;;;;0.68;0.20;;;24.10;51.20;;;;;;6326297;27;20129;-40
2022/08/05 04:21:36;;;;;;;0.20;0.10;;;24.00;51.10;;;;;;6327531;27;20039;-41
2022/08/05 04:24:58;;;;;;;0.50;0.10;;;24.10;51.20;;;;;;6314982;27;20040;-44
2022/08/05 04:28:02;;;;;;;0.90;0.22;;;24.10;51.10;;;;;;6322231;27;20154;-41
2022/08/05 04:31:12;;;;;;;0.30;0.20;;;24.00;51.10;;;;;;6321417;27;20119;-40
2022/08/05 04:34:14;;;;;;;0.57;0.22;;;24.10;51.70;;;;;;6317895;27;20107;-41
2022/08/05 04:37:34;;;;;;;0.40;0.10;;;24.00;51.00;;;;;;6320883;27;20345;-41
2022/08/05 04:40:56;;;;;;;0.55;0.10;;;24.10;51.20;;;;;;6291844;27;20876;-41
2022/08/05 04:43:59;;;;;;;0.10;0.10;;;24.00;51.10;;;;;;6321025;27;20039;-41
2022/08/05 04:47:01;;;;;;;0.35;0.13;;;24.00;51.00;;;;;;6329036;27;20263;-40
2022/08/05 04:50:11;;;;;;;0.40;0.20;;;24.00;51.00;;;;;;6332293;27;20042;-43
2022/08/05 04:53:18;;;;;;;0.10;0.10;;;23.80;50.90;;;;;;6330744;27;20081;-41
2022/08/05 04:56:19;;;;;;;0.70;0.30;;;24.00;51.00;;;;;;6329722;27;21193;-40
2022/08/05 04:59:38;;;;;;;0.50;0.20;;;23.90;51.00;;;;;;6332069;27;20054;-40
2022/08/05 05:02:42;;;;;;;0.20;0.10;;;24.00;51.00;;;;;;6331186;27;20046;-43
2022/08/05 05:05:44;;;;;;;0.40;0.20;;;24.10;51.10;;;;;;6330521;27;20043;-40
2022/08/05 05:09:06;;;;;;;;;;;24.00;51.00;;;;;;6316503;27;20046;-41
2022/08/05 05:12:08;;;;;;;0.38;0.20;;;23.90;51.00;;;;;;6324960;27;19927;-42
2022/08/05 05:15:10;;;;;;;0.73;0.15;;;23.90;51.00;;;;;;6328949;27;20895;-40
2022/08/05 05:18:13;;;;;;;0.55;0.20;;;24.00;51.00;;;;;;6325827;27;20036;-40
2022/08/05 05:21:32;;;;;;;0.30;0.20;;;24.00;51.10;;;;;;6303834;27;20039;-40
2022/08/05 05:24:35;;;;;;;0.63;0.20;;;24.00;51.10;;;;;;6331026;27;20050;-41
2022/08/05 05:27:56;;;;;;;1.90;0.22;;;23.80;51.00;;;;;;6310425;27;20047;-42
2022/08/05 05:30:58;;;;;;;0.15;0.15;;;24.00;51.00;;;;;;6325425;27;20218;-40
2022/08/05 05:34:00;;;;;;;0.63;0.38;;;24.00;51.00;;;;;;6323831;27;20411;-43
2022/08/05 05:37:04;;;;;;;0.30;0.20;;;24.00;51.00;;;;;;6320202;27;20155;-42
2022/08/05 05:40:09;;;;;;;0.25;0.15;;;24.00;51.00;;;;;;6321853;27;20074;-40
2022/08/05 05:43:13;;;;;;;0.93;0.30;;;24.00;51.00;;;;;;6324287;27;20052;-41
2022/08/05 05:46:15;;;;;;;0.40;0.20;;;23.90;51.00;;;;;;6320824;27;20043;-41
2022/08/05 05:49:20;;;;;;;0.75;0.30;;;23.70;50.90;;;;;;6328318;27;20047;-42
2022/08/05 05:52:24;;;;;;;0.80;0.20;;;23.90;51.00;;;;;;6322776;27;20043;-41
2022/08/05 05:55:33;;;;;;;0.35;0.20;;;23.80;51.00;;;;;;6313037;27;20045;-41
2022/08/05 05:58:54;;;;;;;0.90;0.10;;;24.00;51.00;;;;;;6310053;27;21004;-41
2022/08/05 06:01:56;;;;;;;0.40;0.20;;;23.80;51.00;;;;;;6320251;27;20039;-42
2022/08/05 06:05:03;;;;;;;0.68;0.32;;;23.80;51.00;;;;;;6320509;27;20039;-40
2022/08/05 06:08:15;;;;;;;0.75;0.28;;;24.00;51.20;;;;;;6321473;27;20853;-41
2022/08/05 06:11:34;;;;;;;0.73;0.47;;;23.80;51.00;;;;;;6320877;27;20137;-40
2022/08/05 06:14:43;;;;;;;0.65;0.25;;;23.90;51.10;;;;;;6320199;27;20154;-41
2022/08/05 06:17:45;;;;;;;0.43;0.30;;;24.00;51.80;;;;;;6320081;27;20050;-41
2022/08/05 06:20:54;;;;;;;0.30;0.20;;;24.00;51.30;;;;;;6324629;27;20047;-41
2022/08/05 06:23:56;;;;;;;0.65;0.40;;;23.90;51.30;;;;;;6320345;27;20047;-41
2022/08/05 06:27:03;;;;;;;0.77;0.40;;;24.00;51.30;;;;;;6318647;27;20182;-41
2022/08/05 06:30:06;;;;;;;0.43;0.20;;;24.00;51.30;;;;;;6307432;27;20097;-41
2022/08/05 06:33:22;;;;;;;0.80;0.28;;;24.00;51.30;;;;;;6307472;27;20047;-41
2022/08/05 06:36:43;;;;;;;0.50;0.22;;;24.00;51.40;;;;;;6288441;27;20068;-41
2022/08/05 06:39:59;;;;;;;0.55;0.30;;;23.90;51.30;;;;;;6303258;27;20054;-42
2022/08/05 06:43:04;;;;;;;0.95;0.30;;;24.00;51.40;;;;;;6307782;27;20050;-41
2022/08/05 06:46:26;;;;;;;0.80;0.20;;;24.00;51.50;;;;;;6277988;27;20046;-43
2022/08/05 06:49:31;;;;;;;2.42;0.30;;;24.00;51.60;;;;;;6272411;27;20122;-41
2022/08/05 06:52:52;;;;;;;;;;;24.00;51.60;;;;;;6281343;27;20143;-42
2022/08/05 06:56:02;;;;;;;0.88;0.40;;;24.00;51.60;;;;;;6283746;27;19919;-41
2022/08/05 06:59:06;;;;;;;0.80;0.30;;;24.10;51.60;;;;;;6269290;27;20901;-43
2022/08/05 07:02:11;;;;;;;1.45;0.32;;;24.10;51.50;;;;;;6274042;27;20113;-42
2022/08/05 07:05:16;;;;;;;0.60;0.30;;;24.10;51.90;;;;;;6256702;27;20134;-41
2022/08/05 07:08:21;;;;;;;0.40;0.20;;;24.20;51.70;;;;;;6266351;27;20168;-42
2022/08/05 07:11:27;;;;;;;0.70;0.22;;;24.10;51.60;;;;;;6259973;27;20051;-40
2022/08/05 07:17:46;;;;;;;1.52;0.50;;;24.10;51.50;;;;;;6282010;27;20187;-40
2022/08/05 07:21:07;;;;;;;0.88;0.40;;;24.10;51.50;;;;;;6271295;27;20040;-41
2022/08/05 07:24:10;;;;;;;0.40;0.30;;;24.10;51.40;;;;;;6282063;27;20043;-40
2022/08/05 07:27:15;;;;;;;0.82;0.30;;;24.20;52.00;;;;;;6287016;27;20082;-41
2022/08/05 07:30:17;;;;;;;0.57;0.40;;;24.10;51.20;;;;;;6277087;27;20031;-40
2022/08/05 07:33:31;;;;;;;0.30;0.20;;;24.20;51.20;;;;;;6268583;27;20122;-40
2022/08/05 07:36:38;;;;;;;0.22;0.13;;;24.30;51.10;;;;;;6275171;27;20047;-41
2022/08/05 07:39:40;;;;;;;0.63;0.20;;;24.30;51.00;;;;;;6276618;27;20111;-43
2022/08/05 07:43:02;;;;;;;1.45;0.30;;;24.20;50.90;;;;;;6269982;27;20039;-42
2022/08/05 07:46:21;;;;;;;0.70;0.35;;;24.30;50.90;;;;;;6285241;27;20154;-40
2022/08/05 07:49:27;;;;;;;1.23;0.30;;;24.30;50.70;;;;;;6281242;27;20036;-40
2022/08/05 07:52:30;;;;;;;0.35;0.20;;;24.10;50.40;;;;;;6282043;27;20071;-41
2022/08/05 07:55:32;;;;;;;0.45;0.20;;;24.20;50.40;;;;;;6272087;27;20046;-40
2022/08/05 07:58:54;;;;;;;0.68;0.10;;;24.20;50.30;;;;;;6236283;27;20039;-41
2022/08/05 08:02:01;;;;;;;0.82;0.30;;;24.30;50.20;;;;;;6271618;27;20058;-40
2022/08/05 08:05:05;;;;;;;0.70;0.30;;;24.40;50.30;;;;;;6265966;27;20044;-41
2022/08/05 08:08:06;;;;;;;0.77;0.30;;;24.10;49.90;;;;;;6267721;27;21200;-41
2022/08/05 08:11:14;;;;;;;0.68;0.20;;;24.30;49.90;;;;;;6269572;27;21615;-41
2022/08/05 08:14:17;;;;;;;0.82;0.30;;;24.40;49.80;;;;;;6265912;27;20694;-41
2022/08/05 08:17:20;;;;;;;0.35;0.30;;;24.30;49.70;;;;;;6261426;27;20119;-41
2022/08/05 08:20:24;;;;;;;0.55;0.30;;;24.40;49.60;;;;;;6284181;27;20051;-41
2022/08/05 08:23:45;;;;;;;0.50;0.30;;;24.50;49.60;;;;;;6253459;27;20042;-40
2022/08/05 08:27:06;;;;;;;0.70;0.40;;;24.50;49.50;;;;;;6273986;27;20096;-41
2022/08/05 08:30:10;;;;;;;1.08;0.30;;;24.50;49.50;;;;;;6281245;27;20123;-41
2022/08/05 08:33:32;;;;;;;1.00;0.30;;;24.50;49.40;;;;;;6254589;27;20031;-41
2022/08/05 08:36:39;;;;;;;0.95;0.30;;;24.50;49.40;;;;;;6260647;27;20038;-41
2022/08/05 08:39:53;;;;;;;0.52;0.15;;;24.40;49.30;;;;;;6284176;27;20064;-40
2022/08/05 08:42:55;;;;;;;0.77;0.40;;;24.40;49.20;;;;;;6279161;27;20128;-41
2022/08/05 08:46:00;;;;;;;0.85;0.30;;;24.50;49.20;;;;;;6278228;27;20050;-42
2022/08/05 08:49:04;;;;;;;0.40;0.20;;;24.50;49.10;;;;;;6258464;27;20039;-41
2022/08/05 08:52:29;;;;;;;0.45;0.20;;;24.50;49.00;;;;;;6244142;27;20977;-41
2022/08/05 08:55:34;;;;;;;0.63;0.28;;;24.50;49.00;;;;;;6255431;27;20050;-42
2022/08/05 08:58:58;;;;;;;0.40;0.20;;;24.60;48.90;;;;;;6252794;27;20092;-41
2022/08/05 09:02:00;;;;;;;0.65;0.20;;;24.60;48.90;;;;;;6285194;27;20047;-43
2022/08/05 09:05:04;;;;;;;1.08;0.52;;;24.60;48.70;;;;;;6270801;27;20039;-41
2022/08/05 09:08:21;;;;;;;0.63;0.30;;;24.50;48.60;;;;;;6285824;27;21288;-42
2022/08/05 09:11:29;;;;;;;0.85;0.30;;;24.70;48.70;;;;;;6287235;27;20038;-40
2022/08/05 09:14:50;;;;;;;0.43;0.30;;;24.50;48.50;;;;;;6269809;27;20045;-42
2022/08/05 09:18:07;;;;;;;1.05;0.30;;;24.70;48.50;;;;;;6276648;27;20084;-42
2022/08/05 09:21:10;;;;;;;0.65;0.35;;;24.70;48.50;;;;;;6275175;27;20105;-41
2022/08/05 09:24:21;;;;;;;0.70;0.20;;;24.70;48.40;;;;;;6271279;27;20050;-41
2022/08/05 09:27:32;;;;;;;0.60;0.40;;;24.70;48.40;;;;;;6276683;27;21107;-41
2022/08/05 09:30:55;;;;;;;0.55;0.22;;;24.70;48.20;;;;;;6261813;27;20084;-42
2022/08/05 09:33:59;;;;;;;0.65;0.30;;;24.60;48.10;;;;;;6277454;27;21180;-42
2022/08/05 09:37:02;;;;;;;0.38;0.20;;;24.70;48.10;;;;;;6281633;27;20082;-40
2022/08/05 09:40:30;;;;;;;0.77;0.30;;;24.70;48.00;;;;;;6286899;27;20086;-41
2022/08/05 09:43:35;;;;;;;0.63;0.20;;;24.70;48.00;;;;;;6257051;27;20140;-41
2022/08/05 09:46:43;;;;;;;0.68;0.20;;;24.80;47.90;;;;;;6249795;27;20062;-41
2022/08/05 09:50:00;;;;;;;0.90;0.40;;;24.80;47.80;;;;;;6282571;27;20035;-41
2022/08/05 09:53:05;;;;;;;1.23;0.13;;;24.80;47.80;;;;;;6276252;27;21049;-42
2022/08/05 09:56:06;;;;;;;0.80;0.30;;;24.80;47.70;;;;;;6283482;27;20043;-41
2022/08/05 09:59:16;;;;;;;0.55;0.30;;;24.70;47.50;;;;;;6259251;27;20267;-41
2022/08/05 10:02:30;;;;;;;0.40;0.28;;;24.80;47.50;;;;;;6280319;27;20968;-41
2022/08/05 10:05:32;;;;;;;0.85;0.20;;;24.80;47.40;;;;;;6252979;27;21359;-40
2022/08/05 10:08:36;;;;;;;0.60;0.20;;;24.70;47.20;;;;;;6253992;27;20094;-43
2022/08/05 10:11:44;;;;;;;1.33;0.20;;;24.80;47.20;;;;;;6258189;27;21655;-41
2022/08/05 10:14:49;;;;;;;0.55;0.10;;;24.90;47.20;;;;;;6257715;27;21545;-40
2022/08/05 10:18:08;;;;;;;0.65;0.25;;;24.90;47.20;;;;;;6265168;27;21167;-41
2022/08/05 10:21:10;;;;;;;0.65;0.38;;;24.80;46.70;;;;;;6244210;27;21038;-40
2022/08/05 10:24:19;;;;;;;0.32;0.10;;;24.90;46.80;;;;;;6280154;27;20049;-41
2022/08/05 10:27:27;;;;;;;0.20;0.17;;;24.90;46.50;;;;;;6257840;27;20185;-41
2022/08/05 10:30:50;;;;;;;0.95;0.40;;;24.90;46.50;;;;;;6268221;27;20039;-41
2022/08/05 10:34:12;;;;;;;0.88;0.30;;;24.90;46.40;;;;;;6269184;27;20035;-41
2022/08/05 10:37:15;;;;;;;0.30;0.20;;;25.00;46.00;;;;;;6286086;27;20213;-42
2022/08/05 10:40:25;;;;;;;0.50;0.20;;;24.90;46.20;;;;;;6288614;27;21247;-41
2022/08/05 10:43:40;;;;;;;0.47;0.20;;;24.90;46.30;;;;;;6295288;27;22189;-40
2022/08/05 10:46:44;;;;;;;0.45;0.25;;;24.90;46.10;;;;;;6299644;27;21095;-42
2022/08/05 10:49:59;;;;;;;0.32;0.20;;;24.90;46.10;;;;;;6278725;27;20045;-40
2022/08/05 10:53:34;;;;;;;0.80;0.38;;;24.80;46.00;;;;;;6273507;27;20051;-41
2022/08/05 10:56:45;;;;;;;0.45;0.20;;;24.90;46.00;;;;;;6291568;27;20046;-41
2022/08/05 10:59:46;;;;;;;0.93;0.20;;;24.80;46.50;;;;;;6262261;27;20069;-43
2022/08/05 11:03:09;;;;;;;;;;;24.90;45.90;;;;;;6267351;27;20076;-40
2022/08/05 11:06:27;;;;;;;0.75;0.20;;;24.80;45.90;;;;;;6294222;27;20896;-41
2022/08/05 11:09:44;;;;;;;1.08;0.20;;;24.90;45.90;;;;;;6284809;27;20053;-42
2022/08/05 11:12:48;;;;;;;0.38;0.10;;;24.80;45.70;;;;;;6269519;27;20046;-41
2022/08/05 11:16:20;;;;;;;0.52;0.10;;;24.90;45.80;;;;;;6297502;27;20066;-41
2022/08/05 11:19:25;;;;;;;0.50;0.20;;;24.90;45.70;;;;;;6288518;27;20172;-42
2022/08/05 11:22:47;;;;;;;1.45;0.30;;;24.90;45.70;;;;;;6286361;27;20917;-41
2022/08/05 11:26:02;;;;;;;0.40;0.13;;;25.00;45.70;;;;;;6296047;27;20102;-41
2022/08/05 11:29:34;;;;;;;0.95;0.30;;;24.90;45.60;;;;;;6277437;27;20050;-41
2022/08/05 11:32:35;;;;;;;0.55;0.20;;;24.90;45.50;;;;;;6282873;27;20049;-43
2022/08/05 11:35:53;;;;;;;0.30;0.20;;;24.90;45.50;;;;;;6285038;27;20120;-40
2022/08/05 11:39:12;;;;;;;0.20;0.10;;;25.10;45.40;;;;;;6280037;27;20038;-44
2022/08/05 11:42:16;;;;;;;1.55;0.22;;;24.90;45.30;;;;;;6283254;27;21621;-40
2022/08/05 11:45:20;;;;;;;0.95;0.20;;;25.00;45.40;;;;;;6292170;27;21092;-41
2022/08/05 11:48:42;;;;;;;0.30;0.20;;;24.90;45.20;;;;;;6291876;27;20039;-40
2022/08/05 11:51:46;;;;;;;0.98;0.20;;;25.00;45.20;;;;;;6268879;27;20732;-40
2022/08/05 11:54:52;;;;;;;1.60;0.47;;;25.00;45.10;;;;;;6283972;27;20046;-41
2022/08/05 11:57:57;;;;;;;0.25;0.17;;;25.00;45.00;;;;;;6272395;27;20046;-41
2022/08/05 12:01:16;;;;;;;0.40;0.30;;;24.90;44.90;;;;;;6271034;27;20806;-41
2022/08/05 12:04:20;;;;;;;0.65;0.20;;;24.90;44.80;;;;;;6261235;27;20173;-41
2022/08/05 12:07:23;;;;;;;0.63;0.22;;;25.00;45.40;;;;;;6271538;27;21861;-41
2022/08/05 12:10:47;;;;;;;0.32;0.17;;;25.00;44.60;;;;;;6249664;27;20043;-41
2022/08/05 12:13:53;;;;;;;0.38;0.20;;;25.10;44.50;;;;;;6262060;27;20182;-39
2022/08/05 12:17:06;;;;;;;0.38;0.17;;;25.00;44.30;;;;;;6235414;27;20043;-41
2022/08/05 12:20:29;;;;;;;0.60;0.17;;;24.90;44.10;;;;;;6181863;27;20123;-43
2022/08/05 12:23:35;;;;;;;0.93;0.40;;;25.00;44.10;;;;;;6189532;27;20047;-42
2022/08/05 12:26:46;;;;;;;0.70;0.28;;;25.00;43.90;;;;;;6250301;27;20046;-41
2022/08/05 12:29:58;;;;;;;0.63;0.20;;;25.00;44.40;;;;;;6260346;27;20043;-41
2022/08/05 12:33:00;;;;;;;;;;;25.00;43.60;;;;;;6260057;27;20049;-41
2022/08/05 12:36:21;;;;;;;1.02;0.30;;;25.00;43.70;;;;;;6272698;27;22113;-40
2022/08/05 12:39:27;;;;;;;0.63;0.10;;;25.00;43.60;;;;;;6273237;27;20047;-41
2022/08/05 12:42:38;;;;;;;0.17;0.17;;;24.90;43.40;;;;;;6278211;27;20051;-41
2022/08/05 12:45:50;;;;;;;0.32;0.13;;;25.10;43.30;;;;;;6265528;27;20051;-40
2022/08/05 12:48:58;;;;;;;0.73;0.22;;;25.00;43.10;;;;;;6287601;27;20054;-41
2022/08/05 12:52:00;;;;;;;0.47;0.20;;;25.00;43.00;;;;;;6279223;27;21970;-40
2022/08/05 12:55:22;;;;;;;0.90;0.20;;;25.00;43.00;;;;;;6273336;27;20086;-42
2022/08/05 12:58:27;;;;;;;0.32;0.10;;;25.00;42.90;;;;;;6256975;27;20167;-41
2022/08/05 13:01:58;;;;;;;0.22;0.15;;;25.00;42.80;;;;;;6255586;27;21276;-42
2022/08/05 13:05:10;;;;;;;0.80;0.22;;;25.00;42.60;;;;;;6236506;27;20166;-41
2022/08/05 13:08:17;;;;;;;0.20;0.10;;;25.00;42.60;;;;;;6260987;27;20049;-41
2022/08/05 13:11:20;;;;;;;0.40;0.17;;;25.00;42.60;;;;;;6243690;27;20135;-41
2022/08/05 13:14:44;;;;;;;0.32;0.20;;;25.00;42.60;;;;;;6254612;27;20047;-42
2022/08/05 13:17:54;;;;;;;0.60;0.20;;;25.00;42.50;;;;;;6269910;27;20959;-40
2022/08/05 13:21:01;;;;;;;0.47;0.10;;;24.80;42.40;;;;;;6236790;27;20039;-41
2022/08/05 13:24:05;;;;;;;0.10;0.10;;;25.00;42.50;;;;;;6275159;27;20043;-40
2022/08/05 13:27:10;;;;;;;1.20;0.20;;;25.00;42.40;;;;;;6280467;27;20048;-42
2022/08/05 13:30:20;;;;;;;0.50;0.10;;;25.00;42.40;;;;;;6268154;27;20039;-41
2022/08/05 13:33:38;;;;;;;0.10;0.10;;;24.90;42.30;;;;;;6263360;27;20175;-43
2022/08/05 13:36:59;;;;;;;;;;;25.00;42.30;;;;;;6255632;27;21294;-41
2022/08/05 13:40:02;;;;;;;0.47;0.25;;;25.00;42.40;;;;;;6270682;27;19927;-43
2022/08/05 13:43:21;;;;;;;0.17;0.10;;;24.80;42.20;;;;;;6269099;27;20038;-42
2022/08/05 13:46:24;;;;;;;0.13;0.10;;;25.00;42.30;;;;;;6277557;27;20050;-41
2022/08/05 13:49:46;;;;;;;0.20;0.20;;;24.90;42.40;;;;;;6237678;27;20119;-42
2022/08/05 13:52:50;;;;;;;0.50;0.10;;;25.00;42.30;;;;;;6276665;27;20080;-41
2022/08/05 13:55:53;;;;;;;0.95;0.30;;;25.00;42.30;;;;;;6280640;27;20039;-41
2022/08/05 13:59:03;;;;;;;0.30;0.13;;;25.00;42.40;;;;;;6280082;27;20042;-41
2022/08/05 14:02:20;;;;;;;0.50;0.22;;;24.90;42.20;;;;;;6274413;27;20065;-40
2022/08/05 14:05:28;;;;;;;0.20;0.20;;;25.00;42.20;;;;;;6262850;27;20043;-41
2022/08/05 14:08:50;;;;;;;0.30;0.10;;;24.90;42.20;;;;;;6263929;27;20034;-45
2022/08/05 14:11:53;;;;;;;0.30;0.20;;;25.00;42.20;;;;;;6273753;27;21155;-41
2022/08/05 14:15:15;;;;;;;;;;;25.00;42.20;;;;;;6257725;27;20081;-41
2022/08/05 14:18:36;;;;;;;0.20;0.15;;;25.00;42.30;;;;;;6266710;27;19927;-40
2022/08/05 14:21:39;;;;;;;0.43;0.20;;;24.90;42.40;;;;;;6253951;27;21400;-42
2022/08/05 14:25:02;;;;;;;0.20;0.10;;;24.90;42.20;;;;;;6261463;27;20162;-41
2022/08/05 14:28:08;;;;;;;0.10;0.10;;;24.80;42.20;;;;;;6261585;27;20058;-40
2022/08/05 14:31:23;;;;;;;0.57;0.10;;;24.90;42.20;;;;;;6269522;27;20053;-40
2022/08/05 14:34:45;;;;;;;;;;;25.00;42.30;;;;;;6266159;27;22325;-41
2022/08/05 14:37:47;;;;;;;0.10;0.10;;;24.90;42.20;;;;;;6286155;27;19927;-41
2022/08/05 14:40:57;;;;;;;0.10;0.10;;;24.90;42.20;;;;;;6272562;27;20287;-40
2022/08/05 14:43:59;;;;;;;0.20;0.13;;;25.00;42.30;;;;;;6264658;27;20452;-41
2022/08/05 14:47:11;;;;;;;0.15;0.15;;;25.00;42.20;;;;;;6262949;27;20253;-40
2022/08/05 14:50:13;;;;;;;0.40;0.10;;;25.00;42.20;;;;;;6265721;27;20374;-43
2022/08/05 14:53:20;;;;;;;0.10;0.10;;;25.00;42.20;;;;;;6258527;27;20047;-43
2022/08/05 14:56:23;;;;;;;0.10;0.10;;;25.10;42.20;;;;;;6258385;27;20883;-41
2022/08/05 14:59:27;;;;;;;0.43;0.20;;;24.90;42.10;;;;;;6260988;27;20695;-41
2022/08/05 15:02:36;;;;;;;0.40;0.15;;;24.90;42.10;;;;;;6246621;27;21787;-39
2022/08/05 15:05:41;;;;;;;0.10;0.10;;;24.80;42.00;;;;;;6259049;27;20422;-40
2022/08/05 15:09:03;;;;;;;1.17;0.20;;;25.00;42.10;;;;;;6239925;27;20383;-41
2022/08/05 15:12:06;;;;;;;0.20;0.08;;;25.00;42.10;;;;;;6263964;27;21529;-41
2022/08/05 15:15:10;;;;;;;0.20;0.10;;;25.10;42.10;;;;;;6257636;27;20161;-41
2022/08/05 15:18:16;;;;;;;0.43;0.10;;;25.00;42.00;;;;;;6256001;27;20074;-40
2022/08/05 15:21:18;;;;;;;0.40;0.20;;;25.10;42.10;;;;;;6271044;27;20305;-39
2022/08/05 15:24:22;;;;;;;0.30;0.20;;;25.00;41.90;;;;;;6271930;27;21169;-40
2022/08/05 15:27:24;;;;;;;0.38;0.13;;;25.00;41.80;;;;;;6269090;27;20781;-41
2022/08/05 15:30:30;;;;;;;0.13;0.10;;;24.90;41.60;;;;;;6262919;27;20774;-41
2022/08/05 15:33:33;;;;;;;0.20;0.10;;;25.00;41.60;;;;;;6273497;27;20309;-42
2022/08/05 15:36:54;;;;;;;;;;;24.90;41.50;;;;;;6257072;27;20877;-40
2022/08/05 15:39:56;;;;;;;;;;;25.00;41.60;;;;;;6278237;27;20659;-42
2022/08/05 15:43:18;;;;;;;0.08;0.08;;;25.00;41.70;;;;;;6259048;27;21032;-43
2022/08/05 15:46:22;;;;;;;0.20;0.10;;;25.00;41.60;;;;;;6286036;27;20370;-41
2022/08/05 15:49:25;;;;;;;0.10;0.10;;;25.10;41.50;;;;;;6268303;27;20051;-41
2022/08/05 15:52:47;;;;;;;;;;;25.00;42.00;;;;;;6252105;27;20034;-43
2022/08/05 15:55:56;;;;;;;0.88;0.20;;;25.00;41.40;;;;;;6276978;27;19927;-40
2022/08/05 15:59:06;;;;;;;0.20;0.10;;;24.90;41.30;;;;;;6273209;27;20334;-40
2022/08/05 16:02:07;;;;;;;0.00;0.00;;;25.00;41.30;;;;;;6273119;27;21002;-42
2022/08/05 16:05:16;;;;;;;0.20;0.10;;;25.00;41.20;;;;;;6280212;27;20092;-40
2022/08/05 16:08:20;;;;;;;0.20;0.05;;;25.00;41.20;;;;;;6275076;27;20243;-39
2022/08/05 16:11:25;;;;;;;0.20;0.10;;;24.90;41.10;;;;;;6282780;27;20070;-40
2022/08/05 16:14:45;;;;;;;0.17;0.10;;;24.90;41.00;;;;;;6301620;27;20055;-42
2022/08/05 16:17:47;;;;;;;0.20;0.20;;;24.90;40.90;;;;;;6299135;27;20034;-41
2022/08/05 16:21:00;;;;;;;0.20;0.10;;;25.00;41.00;;;;;;6290428;27;20055;-40
2022/08/05 16:24:06;;;;;;;0.30;0.10;;;25.00;40.90;;;;;;6292430;27;20043;-39
2022/08/05 16:27:14;;;;;;;0.30;0.10;;;25.00;40.90;;;;;;6281010;27;20889;-42
2022/08/05 16:30:18;;;;;;;0.10;0.10;;;25.10;40.90;;;;;;6280459;27;20294;-40
2022/08/05 16:33:30;;;;;;;0.13;0.10;;;24.90;40.70;;;;;;6288565;27;20066;-42
2022/08/05 16:36:42;;;;;;;1.15;0.20;;;25.00;40.80;;;;;;6288720;27;20659;-41